createdAt,value
2017-01-02T00:00:04.210Z,2.87
2017-01-02T00:00:30.294Z,2.92
2017-01-02T00:00:56.397Z,2.86
2017-01-02T00:01:22.497Z,2.89
2017-01-02T00:01:48.592Z,2.86
2017-01-02T00:02:14.686Z,2.85
2017-01-02T00:02:40.770Z,2.86
2017-01-02T00:03:06.882Z,2.8
2017-01-02T00:03:32.971Z,2.86
2017-01-02T00:03:59.063Z,2.8
2017-01-02T00:04:25.166Z,2.92
2017-01-02T00:04:51.270Z,2.93
2017-01-02T00:05:17.380Z,2.87
2017-01-02T00:05:43.483Z,2.89
2017-01-02T00:06:09.584Z,2.93
2017-01-02T00:06:35.668Z,2.89
2017-01-02T00:07:01.765Z,2.92
2017-01-02T00:07:27.871Z,2.8
2017-01-02T00:07:53.956Z,2.87
2017-01-02T00:08:20.051Z,2.85
2017-01-02T00:08:46.153Z,2.9
2017-01-02T00:09:12.248Z,2.8
2017-01-02T00:09:38.339Z,2.82
2017-01-02T00:10:04.440Z,2.82
2017-01-02T00:10:30.533Z,2.87
2017-01-02T00:10:56.622Z,2.82
2017-01-02T00:11:22.724Z,2.75
2017-01-02T00:11:48.819Z,2.71
2017-01-02T00:12:14.909Z,2.82
2017-01-02T00:12:41.003Z,2.75
2017-01-02T00:13:07.089Z,2.83
2017-01-02T00:13:33.200Z,2.82
2017-01-02T00:13:59.289Z,2.86
2017-01-02T00:14:25.378Z,2.87
2017-01-02T00:14:51.479Z,2.71
2017-01-02T00:15:17.576Z,2.82
2017-01-02T00:15:43.665Z,2.74
2017-01-02T00:16:09.767Z,2.87
2017-01-02T00:16:35.872Z,2.87
2017-01-02T00:17:01.960Z,2.85
2017-01-02T00:17:28.057Z,2.89
2017-01-02T00:17:54.164Z,2.97
2017-01-02T00:18:20.254Z,2.87
2017-01-02T00:18:46.355Z,2.87
2017-01-02T00:19:12.442Z,2.95
2017-01-02T00:19:38.544Z,2.86
2017-01-02T00:20:04.643Z,2.87
2017-01-02T00:20:30.731Z,2.93
2017-01-02T00:20:56.832Z,2.85
2017-01-02T00:21:22.964Z,2.83
2017-01-02T00:21:49.047Z,2.85
2017-01-02T00:22:15.146Z,2.86
2017-01-02T00:22:41.248Z,2.87
2017-01-02T00:23:07.342Z,2.87
2017-01-02T00:23:33.434Z,2.83
2017-01-02T00:23:59.533Z,2.83
2017-01-02T00:24:25.624Z,2.89
2017-01-02T00:24:51.731Z,2.83
2017-01-02T00:25:17.816Z,2.9
2017-01-02T00:25:43.914Z,2.82
2017-01-02T00:26:10.013Z,2.85
2017-01-02T00:26:36.099Z,2.86
2017-01-02T00:27:02.189Z,2.85
2017-01-02T00:27:28.327Z,2.82
2017-01-02T00:27:54.424Z,2.9
2017-01-02T00:28:20.511Z,2.75
2017-01-02T00:28:46.612Z,2.82
2017-01-02T00:29:12.706Z,2.8
2017-01-02T00:29:38.809Z,2.85
2017-01-02T00:30:04.906Z,2.79
2017-01-02T00:30:30.987Z,2.85
2017-01-02T00:30:57.090Z,2.83
2017-01-02T00:31:23.187Z,2.79
2017-01-02T00:31:49.276Z,2.82
2017-01-02T00:32:15.376Z,2.82
2017-01-02T00:32:41.473Z,2.83
2017-01-02T00:33:07.553Z,2.85
2017-01-02T00:33:33.657Z,2.69
2017-01-02T00:33:59.761Z,2.72
2017-01-02T00:34:25.853Z,2.75
2017-01-02T00:34:51.945Z,2.77
2017-01-02T00:35:18.037Z,2.77
2017-01-02T00:35:44.137Z,2.85
2017-01-02T00:36:10.239Z,2.74
2017-01-02T00:36:36.322Z,2.69
2017-01-02T00:37:02.417Z,2.74
2017-01-02T00:37:28.547Z,2.62
2017-01-02T00:37:54.629Z,2.69
2017-01-02T00:38:20.726Z,2.67
2017-01-02T00:38:46.835Z,2.72
2017-01-02T00:39:12.923Z,2.71
2017-01-02T00:39:39.012Z,2.72
2017-01-02T00:40:05.111Z,2.74
2017-01-02T00:40:31.203Z,2.75
2017-01-02T00:40:57.306Z,2.75
2017-01-02T00:41:23.389Z,2.72
2017-01-02T00:41:49.484Z,2.77
2017-01-02T00:42:15.588Z,2.71
2017-01-02T00:42:41.678Z,2.72
2017-01-02T00:43:07.779Z,2.83
2017-01-02T00:43:33.882Z,2.79
2017-01-02T00:43:59.974Z,2.82
2017-01-02T00:44:26.056Z,2.74
2017-01-02T00:44:52.169Z,2.67
2017-01-02T00:45:18.258Z,2.75
2017-01-02T00:45:44.350Z,2.72
2017-01-02T00:46:10.453Z,2.75
2017-01-02T00:46:36.546Z,2.72
2017-01-02T00:47:02.651Z,2.71
2017-01-02T00:47:28.744Z,2.74
2017-01-02T00:47:54.830Z,2.71
2017-01-02T00:48:20.931Z,2.71
2017-01-02T00:48:47.026Z,2.72
2017-01-02T00:49:13.117Z,2.82
2017-01-02T00:49:39.227Z,2.82
2017-01-02T00:50:05.323Z,2.72
2017-01-02T00:50:31.407Z,2.85
2017-01-02T00:50:57.510Z,2.79
2017-01-02T00:51:23.606Z,2.72
2017-01-02T00:51:49.692Z,2.74
2017-01-02T00:52:15.785Z,2.82
2017-01-02T00:52:41.891Z,2.86
2017-01-02T00:53:07.975Z,2.93
2017-01-02T00:53:34.071Z,2.83
2017-01-02T00:54:00.172Z,2.83
2017-01-02T00:54:26.261Z,2.86
2017-01-02T00:54:52.344Z,2.82
2017-01-02T00:55:18.457Z,2.83
2017-01-02T00:55:44.547Z,2.77
2017-01-02T00:56:10.636Z,2.77
2017-01-02T00:56:36.739Z,2.72
2017-01-02T00:57:02.830Z,2.75
2017-01-02T00:57:28.934Z,2.83
2017-01-02T00:57:55.023Z,2.85
2017-01-02T00:58:21.106Z,2.86
2017-01-02T00:58:47.211Z,2.85
2017-01-02T00:59:13.307Z,2.85
2017-01-02T00:59:39.399Z,2.82
2017-01-02T01:00:05.502Z,2.82
2017-01-02T01:00:31.601Z,2.87
2017-01-02T01:00:57.684Z,2.85
2017-01-02T01:01:23.789Z,2.92
2017-01-02T01:01:49.888Z,2.82
2017-01-02T01:02:15.979Z,2.83
2017-01-02T01:02:42.075Z,3
2017-01-02T01:03:08.165Z,2.95
2017-01-02T01:03:34.266Z,2.95
2017-01-02T01:04:00.366Z,2.83
2017-01-02T01:04:26.448Z,2.97
2017-01-02T01:04:52.550Z,2.87
2017-01-02T01:05:18.686Z,3.03
2017-01-02T01:05:44.770Z,2.93
2017-01-02T01:06:10.860Z,2.9
2017-01-02T01:06:36.971Z,2.82
2017-01-02T01:07:03.054Z,2.9
2017-01-02T01:07:29.151Z,2.86
2017-01-02T01:07:55.251Z,2.93
2017-01-02T01:08:21.339Z,2.97
2017-01-02T01:08:47.448Z,2.97
2017-01-02T01:09:13.528Z,2.95
2017-01-02T01:09:39.626Z,2.93
2017-01-02T01:10:05.756Z,2.82
2017-01-02T01:10:31.842Z,2.85
2017-01-02T01:10:57.930Z,2.93
2017-01-02T01:11:24.037Z,2.89
2017-01-02T01:11:50.131Z,2.95
2017-01-02T01:12:16.211Z,2.86
2017-01-02T01:12:42.321Z,2.86
2017-01-02T01:13:08.411Z,2.86
2017-01-02T01:13:34.501Z,2.82
2017-01-02T01:14:00.604Z,2.85
2017-01-02T01:14:26.694Z,2.98
2017-01-02T01:14:52.792Z,2.85
2017-01-02T01:15:18.884Z,2.97
2017-01-02T01:15:44.969Z,2.83
2017-01-02T01:16:11.080Z,2.86
2017-01-02T01:16:37.172Z,2.95
2017-01-02T01:17:03.253Z,2.92
2017-01-02T01:17:29.354Z,2.82
2017-01-02T01:17:55.451Z,2.85
2017-01-02T01:18:21.533Z,2.93
2017-01-02T01:18:47.635Z,2.87
2017-01-02T01:19:13.752Z,2.85
2017-01-02T01:19:39.864Z,2.97
2017-01-02T01:20:05.959Z,2.87
2017-01-02T01:20:32.049Z,2.93
2017-01-02T01:20:58.148Z,2.87
2017-01-02T01:21:24.246Z,2.95
2017-01-02T01:21:50.329Z,2.89
2017-01-02T01:22:16.435Z,2.95
2017-01-02T01:22:42.532Z,2.95
2017-01-02T01:23:08.615Z,2.95
2017-01-02T01:23:34.709Z,2.85
2017-01-02T01:24:00.815Z,3
2017-01-02T01:24:27.737Z,3.04
2017-01-02T01:24:53.827Z,3.03
2017-01-02T01:25:19.920Z,3.11
2017-01-02T01:25:46.021Z,3.01
2017-01-02T01:26:12.121Z,3
2017-01-02T01:26:38.211Z,2.93
2017-01-02T01:27:04.304Z,3
2017-01-02T01:27:30.413Z,3.03
2017-01-02T01:27:56.497Z,2.98
2017-01-02T01:28:22.592Z,2.93
2017-01-02T01:28:48.694Z,2.93
2017-01-02T01:29:14.788Z,3
2017-01-02T01:29:40.869Z,2.86
2017-01-02T01:30:06.980Z,3
2017-01-02T01:30:33.076Z,2.97
2017-01-02T01:30:59.171Z,3.07
2017-01-02T01:31:25.260Z,3.07
2017-01-02T01:31:51.354Z,3.05
2017-01-02T01:32:17.455Z,3.03
2017-01-02T01:32:43.547Z,3.01
2017-01-02T01:33:09.628Z,2.89
2017-01-02T01:33:35.738Z,2.87
2017-01-02T01:34:01.832Z,2.9
2017-01-02T01:34:27.921Z,2.93
2017-01-02T01:34:54.025Z,2.85
2017-01-02T01:35:20.121Z,2.93
2017-01-02T01:35:46.208Z,2.89
2017-01-02T01:36:12.304Z,2.93
2017-01-02T01:36:38.407Z,2.97
2017-01-02T01:37:04.495Z,2.9
2017-01-02T01:37:30.592Z,2.92
2017-01-02T01:37:56.696Z,2.85
2017-01-02T01:38:22.783Z,2.93
2017-01-02T01:38:48.874Z,2.97
2017-01-02T01:39:14.977Z,3.07
2017-01-02T01:39:41.064Z,3.01
2017-01-02T01:40:07.154Z,3
2017-01-02T01:40:33.257Z,2.92
2017-01-02T01:40:59.355Z,2.95
2017-01-02T01:41:25.446Z,2.85
2017-01-02T01:41:51.549Z,2.92
2017-01-02T01:42:17.639Z,2.85
2017-01-02T01:42:43.738Z,2.93
2017-01-02T01:43:09.830Z,2.93
2017-01-02T01:43:35.913Z,2.86
2017-01-02T01:44:02.025Z,2.89
2017-01-02T01:44:28.119Z,3.03
2017-01-02T01:44:54.209Z,3.04
2017-01-02T01:45:20.308Z,3.04
2017-01-02T01:45:46.401Z,3.04
2017-01-02T01:46:12.486Z,3.08
2017-01-02T01:46:38.588Z,3.1
2017-01-02T01:47:04.689Z,3.1
2017-01-02T01:47:30.783Z,3.1
2017-01-02T01:47:56.871Z,3.08
2017-01-02T01:48:22.964Z,3.04
2017-01-02T01:48:49.064Z,3.03
2017-01-02T01:49:15.164Z,3.07
2017-01-02T01:49:41.244Z,3.07
2017-01-02T01:50:07.341Z,3.14
2017-01-02T01:50:33.445Z,3.11
2017-01-02T01:50:59.530Z,3.08
2017-01-02T01:51:25.627Z,3.18
2017-01-02T01:51:51.729Z,3.11
2017-01-02T01:52:17.816Z,3.21
2017-01-02T01:52:43.905Z,3.18
2017-01-02T01:53:09.999Z,3.11
2017-01-02T01:53:36.100Z,3.23
2017-01-02T01:54:02.198Z,3.22
2017-01-02T01:54:28.284Z,3.25
2017-01-02T01:54:54.377Z,3.21
2017-01-02T01:55:20.485Z,3.31
2017-01-02T01:55:46.572Z,3.21
2017-01-02T01:56:12.666Z,3.16
2017-01-02T01:56:38.767Z,3.18
2017-01-02T01:57:04.859Z,3.19
2017-01-02T01:57:30.950Z,3.21
2017-01-02T01:57:57.062Z,3.23
2017-01-02T01:58:23.152Z,3.16
2017-01-02T01:58:49.254Z,3.16
2017-01-02T01:59:15.345Z,3.04
2017-01-02T01:59:41.438Z,3.07
2017-01-02T02:00:07.534Z,3.07
2017-01-02T02:00:33.622Z,3.04
2017-01-02T02:00:59.706Z,3.13
2017-01-02T02:01:25.812Z,3.07
2017-01-02T02:01:51.900Z,3.08
2017-01-02T02:02:17.993Z,3.07
2017-01-02T02:02:44.095Z,3.04
2017-01-02T02:03:10.198Z,3.1
2017-01-02T02:03:36.282Z,3.1
2017-01-02T02:04:02.382Z,3.08
2017-01-02T02:04:28.472Z,3.04
2017-01-02T02:04:54.573Z,3.07
2017-01-02T02:05:20.671Z,3.07
2017-01-02T02:05:46.755Z,3.11
2017-01-02T02:06:12.861Z,3.11
2017-01-02T02:06:38.959Z,3.11
2017-01-02T02:07:05.052Z,3.11
2017-01-02T02:07:31.152Z,3.05
2017-01-02T02:07:57.253Z,3.13
2017-01-02T02:08:23.337Z,3.14
2017-01-02T02:08:49.431Z,3.21
2017-01-02T02:09:15.539Z,3.13
2017-01-02T02:09:41.625Z,3.13
2017-01-02T02:10:07.723Z,3.13
2017-01-02T02:10:33.812Z,3.11
2017-01-02T02:10:59.921Z,3.14
2017-01-02T02:11:26.022Z,3.05
2017-01-02T02:11:52.097Z,3.1
2017-01-02T02:12:18.188Z,3.07
2017-01-02T02:12:44.289Z,3.13
2017-01-02T02:13:10.377Z,3.1
2017-01-02T02:13:36.475Z,3.14
2017-01-02T02:14:02.579Z,3.11
2017-01-02T02:14:28.667Z,3.13
2017-01-02T02:14:54.774Z,3.18
2017-01-02T02:15:20.875Z,3.21
2017-01-02T02:15:46.973Z,3.16
2017-01-02T02:16:13.075Z,3.19
2017-01-02T02:16:39.168Z,3.22
2017-01-02T02:17:05.257Z,3.28
2017-01-02T02:17:31.366Z,3.31
2017-01-02T02:17:57.452Z,3.26
2017-01-02T02:18:23.543Z,3.34
2017-01-02T02:18:49.646Z,3.32
2017-01-02T02:19:15.740Z,3.32
2017-01-02T02:19:41.823Z,3.32
2017-01-02T02:20:07.929Z,3.32
2017-01-02T02:20:34.030Z,3.31
2017-01-02T02:21:00.115Z,3.31
2017-01-02T02:21:26.216Z,3.21
2017-01-02T02:21:52.320Z,3.25
2017-01-02T02:22:18.409Z,3.26
2017-01-02T02:22:44.504Z,3.22
2017-01-02T02:23:10.610Z,3.13
2017-01-02T02:23:36.695Z,3.26
2017-01-02T02:24:02.793Z,3.22
2017-01-02T02:24:28.891Z,3.19
2017-01-02T02:24:54.979Z,3.23
2017-01-02T02:25:21.067Z,3.21
2017-01-02T02:25:47.177Z,3.19
2017-01-02T02:26:13.273Z,3.19
2017-01-02T02:26:39.367Z,3.13
2017-01-02T02:27:05.454Z,3.13
2017-01-02T02:27:31.546Z,3.04
2017-01-02T02:27:57.649Z,3.03
2017-01-02T02:28:23.732Z,3.08
2017-01-02T02:28:49.822Z,3.11
2017-01-02T02:29:15.927Z,3.05
2017-01-02T02:29:42.020Z,3.08
2017-01-02T02:30:08.111Z,3.07
2017-01-02T02:30:34.213Z,3.04
2017-01-02T02:31:00.311Z,3.04
2017-01-02T02:31:26.398Z,3
2017-01-02T02:31:52.495Z,2.98
2017-01-02T02:32:18.588Z,3.04
2017-01-02T02:32:44.696Z,2.97
2017-01-02T02:33:10.789Z,2.82
2017-01-02T02:33:36.882Z,2.89
2017-01-02T02:34:02.986Z,2.87
2017-01-02T02:34:29.087Z,2.92
2017-01-02T02:34:55.172Z,2.85
2017-01-02T02:35:21.270Z,2.83
2017-01-02T02:35:47.370Z,2.93
2017-01-02T02:36:13.454Z,2.97
2017-01-02T02:36:39.553Z,3.07
2017-01-02T02:37:05.658Z,3.01
2017-01-02T02:37:31.740Z,3.08
2017-01-02T02:37:57.843Z,3.13
2017-01-02T02:38:23.929Z,3.14
2017-01-02T02:38:50.026Z,3.19
2017-01-02T02:39:16.135Z,3.22
2017-01-02T02:39:42.221Z,3.18
2017-01-02T02:40:08.314Z,3.18
2017-01-02T02:40:34.414Z,3.18
2017-01-02T02:41:00.503Z,3.1
2017-01-02T02:41:26.600Z,3.14
2017-01-02T02:41:52.704Z,3.14
2017-01-02T02:42:18.790Z,3.18
2017-01-02T02:42:44.877Z,3.19
2017-01-02T02:43:10.981Z,3.13
2017-01-02T02:43:37.073Z,3.21
2017-01-02T02:44:03.182Z,3.21
2017-01-02T02:44:29.266Z,3.23
2017-01-02T02:44:55.364Z,3.19
2017-01-02T02:45:21.465Z,3.21
2017-01-02T02:45:47.555Z,3.23
2017-01-02T02:46:13.642Z,3.25
2017-01-02T02:46:39.749Z,3.23
2017-01-02T02:47:05.843Z,3.22
2017-01-02T02:47:31.932Z,3.25
2017-01-02T02:47:58.030Z,3.29
2017-01-02T02:48:24.125Z,3.25
2017-01-02T02:48:50.224Z,3.21
2017-01-02T02:49:16.314Z,3.26
2017-01-02T02:49:42.393Z,3.26
2017-01-02T02:50:08.501Z,3.28
2017-01-02T02:50:34.594Z,3.28
2017-01-02T02:51:00.687Z,3.25
2017-01-02T02:51:26.787Z,3.25
2017-01-02T02:51:52.883Z,3.22
2017-01-02T02:52:18.971Z,3.28
2017-01-02T02:52:45.073Z,3.21
2017-01-02T02:53:11.174Z,3.26
2017-01-02T02:53:37.262Z,3.22
2017-01-02T02:54:03.360Z,3.25
2017-01-02T02:54:29.450Z,3.25
2017-01-02T02:54:55.554Z,3.32
2017-01-02T02:55:21.651Z,3.25
2017-01-02T02:55:47.738Z,3.19
2017-01-02T02:56:13.836Z,3.28
2017-01-02T02:56:39.933Z,3.16
2017-01-02T02:57:06.018Z,3.19
2017-01-02T02:57:32.111Z,3.28
2017-01-02T02:57:58.213Z,3.22
2017-01-02T02:58:24.307Z,3.21
2017-01-02T02:58:50.402Z,3.26
2017-01-02T02:59:16.501Z,3.16
2017-01-02T02:59:42.592Z,3.21
2017-01-02T03:00:08.698Z,3.25
2017-01-02T03:00:34.778Z,3.21
2017-01-02T03:01:00.874Z,3.26
2017-01-02T03:01:26.973Z,3.29
2017-01-02T03:01:53.063Z,3.25
2017-01-02T03:02:19.160Z,3.25
2017-01-02T03:02:45.257Z,3.22
2017-01-02T03:03:11.346Z,3.21
2017-01-02T03:03:37.432Z,3.25
2017-01-02T03:04:03.546Z,3.23
2017-01-02T03:04:29.638Z,3.29
2017-01-02T03:04:55.750Z,3.23
2017-01-02T03:05:21.850Z,3.23
2017-01-02T03:05:47.953Z,3.29
2017-01-02T03:06:14.036Z,3.21
2017-01-02T03:06:40.132Z,3.22
2017-01-02T03:07:06.233Z,3.29
2017-01-02T03:07:32.312Z,3.23
2017-01-02T03:07:58.415Z,3.19
2017-01-02T03:08:24.517Z,3.28
2017-01-02T03:08:50.607Z,3.21
2017-01-02T03:09:16.718Z,3.11
2017-01-02T03:09:42.825Z,3.16
2017-01-02T03:10:08.915Z,3.04
2017-01-02T03:10:34.996Z,3.14
2017-01-02T03:11:01.094Z,3.13
2017-01-02T03:11:27.189Z,3.21
2017-01-02T03:11:53.295Z,3.13
2017-01-02T03:12:19.383Z,3.18
2017-01-02T03:12:45.479Z,3.13
2017-01-02T03:13:11.578Z,3.25
2017-01-02T03:13:37.669Z,3.19
2017-01-02T03:14:03.754Z,3.22
2017-01-02T03:14:29.867Z,3.31
2017-01-02T03:14:55.957Z,3.23
2017-01-02T03:15:22.044Z,3.22
2017-01-02T03:15:48.145Z,3.26
2017-01-02T03:16:14.242Z,3.26
2017-01-02T03:16:40.339Z,3.23
2017-01-02T03:17:06.427Z,3.28
2017-01-02T03:17:32.509Z,3.32
2017-01-02T03:17:58.615Z,3.28
2017-01-02T03:18:24.711Z,3.29
2017-01-02T03:18:50.797Z,3.22
2017-01-02T03:19:16.898Z,3.34
2017-01-02T03:19:42.995Z,3.31
2017-01-02T03:20:09.083Z,3.23
2017-01-02T03:20:35.182Z,3.28
2017-01-02T03:21:01.287Z,3.19
2017-01-02T03:21:27.369Z,3.22
2017-01-02T03:21:53.470Z,3.23
2017-01-02T03:22:19.552Z,3.25
2017-01-02T03:22:45.658Z,3.21
2017-01-02T03:23:11.756Z,3.19
2017-01-02T03:23:37.845Z,3.26
2017-01-02T03:24:03.940Z,3.28
2017-01-02T03:24:30.041Z,3.25
2017-01-02T03:24:56.124Z,3.22
2017-01-02T03:25:22.224Z,3.26
2017-01-02T03:25:48.330Z,3.44
2017-01-02T03:26:14.417Z,3.37
2017-01-02T03:26:40.508Z,3.4
2017-01-02T03:27:06.614Z,3.22
2017-01-02T03:27:32.709Z,3.32
2017-01-02T03:27:58.817Z,3.31
2017-01-02T03:28:24.900Z,3.32
2017-01-02T03:28:50.994Z,3.22
2017-01-02T03:29:17.097Z,3.31
2017-01-02T03:29:43.177Z,3.22
2017-01-02T03:30:09.273Z,3.31
2017-01-02T03:30:35.375Z,3.29
2017-01-02T03:31:01.467Z,3.25
2017-01-02T03:31:27.553Z,3.19
2017-01-02T03:31:53.661Z,3.19
2017-01-02T03:32:19.752Z,3.23
2017-01-02T03:32:45.844Z,3.19
2017-01-02T03:33:11.944Z,3.23
2017-01-02T03:33:38.031Z,3.21
2017-01-02T03:34:04.140Z,3.28
2017-01-02T03:34:30.233Z,3.23
2017-01-02T03:34:56.318Z,3.29
2017-01-02T03:35:22.426Z,3.26
2017-01-02T03:35:48.510Z,3.4
2017-01-02T03:36:14.594Z,3.4
2017-01-02T03:36:43.718Z,3.34
2017-01-02T03:37:09.803Z,3.42
2017-01-02T03:37:35.905Z,3.47
2017-01-02T03:38:01.994Z,3.42
2017-01-02T03:38:28.087Z,3.45
2017-01-02T03:38:54.181Z,3.36
2017-01-02T03:39:20.278Z,3.42
2017-01-02T03:39:46.387Z,3.34
2017-01-02T03:40:12.468Z,3.4
2017-01-02T03:40:38.561Z,3.32
2017-01-02T03:41:04.661Z,3.4
2017-01-02T03:41:30.757Z,3.45
2017-01-02T03:41:56.836Z,3.41
2017-01-02T03:42:22.943Z,3.37
2017-01-02T03:42:49.033Z,3.42
2017-01-02T03:43:15.126Z,3.44
2017-01-02T03:43:41.226Z,3.32
2017-01-02T03:44:07.321Z,3.25
2017-01-02T03:44:33.424Z,3.36
2017-01-02T03:44:59.512Z,3.26
2017-01-02T03:45:25.591Z,3.25
2017-01-02T03:45:51.700Z,3.28
2017-01-02T03:46:17.795Z,3.19
2017-01-02T03:46:43.886Z,3.19
2017-01-02T03:47:09.987Z,3.18
2017-01-02T03:47:36.081Z,3.22
2017-01-02T03:48:02.168Z,3.21
2017-01-02T03:48:28.263Z,3.23
2017-01-02T03:48:54.373Z,3.26
2017-01-02T03:49:20.461Z,3.29
2017-01-02T03:49:46.560Z,3.23
2017-01-02T03:50:12.666Z,3.22
2017-01-02T03:50:38.749Z,3.26
2017-01-02T03:51:04.842Z,3.25
2017-01-02T03:51:30.949Z,3.36
2017-01-02T03:51:57.039Z,3.23
2017-01-02T03:52:23.130Z,3.22
2017-01-02T03:52:49.229Z,3.19
2017-01-02T03:53:15.323Z,3.21
2017-01-02T03:53:41.409Z,3.26
2017-01-02T03:54:07.509Z,3.25
2017-01-02T03:54:33.609Z,3.21
2017-01-02T03:54:59.697Z,3.22
2017-01-02T03:55:25.799Z,3.19
2017-01-02T03:55:51.881Z,3.21
2017-01-02T03:56:17.987Z,3.22
2017-01-02T03:56:44.084Z,3.28
2017-01-02T03:57:10.169Z,3.28
2017-01-02T03:57:36.271Z,3.29
2017-01-02T03:58:02.360Z,3.23
2017-01-02T03:58:28.451Z,3.26
2017-01-02T03:58:54.547Z,3.37
2017-01-02T03:59:20.656Z,3.28
2017-01-02T03:59:46.737Z,3.31
2017-01-02T04:00:12.832Z,3.4
2017-01-02T04:00:38.939Z,3.37
2017-01-02T04:01:05.024Z,3.29
2017-01-02T04:01:31.118Z,3.22
2017-01-02T04:01:57.199Z,3.28
2017-01-02T04:02:23.300Z,3.25
2017-01-02T04:02:49.400Z,3.25
2017-01-02T04:03:15.489Z,3.18
2017-01-02T04:03:41.585Z,3.19
2017-01-02T04:04:07.693Z,3.1
2017-01-02T04:04:33.777Z,3.22
2017-01-02T04:04:59.866Z,3.22
2017-01-02T04:05:25.969Z,3.28
2017-01-02T04:05:52.057Z,3.21
2017-01-02T04:06:18.144Z,3.19
2017-01-02T04:06:44.245Z,3.16
2017-01-02T04:07:10.341Z,3.1
2017-01-02T04:07:36.445Z,3.28
2017-01-02T04:08:02.530Z,3.19
2017-01-02T04:08:28.625Z,3.11
2017-01-02T04:08:54.723Z,3.18
2017-01-02T04:09:20.813Z,3.22
2017-01-02T04:09:46.898Z,3.22
2017-01-02T04:10:13.012Z,3.19
2017-01-02T04:10:39.100Z,3.19
2017-01-02T04:11:05.182Z,3.21
2017-01-02T04:11:31.317Z,3.19
2017-01-02T04:11:57.415Z,3.16
2017-01-02T04:12:23.514Z,3.19
2017-01-02T04:12:49.598Z,3.14
2017-01-02T04:13:15.683Z,3.21
2017-01-02T04:13:41.789Z,3.18
2017-01-02T04:14:07.885Z,3.13
2017-01-02T04:14:33.965Z,3.19
2017-01-02T04:15:00.064Z,3.16
2017-01-02T04:15:26.156Z,3.14
2017-01-02T04:15:52.243Z,3.21
2017-01-02T04:16:18.345Z,3.19
2017-01-02T04:16:44.448Z,3.26
2017-01-02T04:17:10.530Z,3.19
2017-01-02T04:17:36.622Z,3.21
2017-01-02T04:18:02.709Z,3.14
2017-01-02T04:18:28.814Z,3.16
2017-01-02T04:18:54.904Z,3.1
2017-01-02T04:19:20.987Z,3.13
2017-01-02T04:19:47.087Z,3.19
2017-01-02T04:20:13.195Z,3.21
2017-01-02T04:20:39.279Z,3.21
2017-01-02T04:21:05.378Z,3.19
2017-01-02T04:21:31.474Z,3.21
2017-01-02T04:21:57.560Z,3.25
2017-01-02T04:22:23.646Z,3.19
2017-01-02T04:22:49.754Z,3.25
2017-01-02T04:23:15.884Z,3.21
2017-01-02T04:23:41.982Z,3.23
2017-01-02T04:24:08.068Z,3.22
2017-01-02T04:24:34.169Z,3.26
2017-01-02T04:25:00.278Z,3.18
2017-01-02T04:25:26.362Z,3.21
2017-01-02T04:25:52.451Z,3.25
2017-01-02T04:26:18.552Z,3.29
2017-01-02T04:26:44.646Z,3.28
2017-01-02T04:27:10.735Z,3.25
2017-01-02T04:27:36.840Z,3.26
2017-01-02T04:28:02.932Z,3.25
2017-01-02T04:28:29.010Z,3.22
2017-01-02T04:28:55.118Z,3.32
2017-01-02T04:29:21.210Z,3.25
2017-01-02T04:29:47.313Z,3.31
2017-01-02T04:30:13.400Z,3.29
2017-01-02T04:30:39.486Z,3.25
2017-01-02T04:31:05.593Z,3.25
2017-01-02T04:31:31.689Z,3.26
2017-01-02T04:31:57.780Z,3.29
2017-01-02T04:32:23.879Z,3.25
2017-01-02T04:32:49.975Z,3.22
2017-01-02T04:33:16.066Z,3.22
2017-01-02T04:33:42.162Z,3.34
2017-01-02T04:34:08.269Z,3.22
2017-01-02T04:34:34.350Z,3.23
2017-01-02T04:35:00.445Z,3.29
2017-01-02T04:35:26.545Z,3.25
2017-01-02T04:35:52.633Z,3.37
2017-01-02T04:36:18.726Z,3.21
2017-01-02T04:36:44.830Z,3.25
2017-01-02T04:37:10.920Z,3.29
2017-01-02T04:37:37.010Z,3.21
2017-01-02T04:38:03.108Z,3.23
2017-01-02T04:38:29.201Z,3.22
2017-01-02T04:38:55.288Z,3.25
2017-01-02T04:39:21.393Z,3.28
2017-01-02T04:39:47.489Z,3.22
2017-01-02T04:40:13.584Z,3.21
2017-01-02T04:40:39.673Z,3.21
2017-01-02T04:41:05.763Z,3.19
2017-01-02T04:41:31.864Z,3.21
2017-01-02T04:41:57.957Z,3.26
2017-01-02T04:42:24.043Z,3.22
2017-01-02T04:42:50.151Z,3.25
2017-01-02T04:43:16.241Z,3.29
2017-01-02T04:43:42.331Z,3.19
2017-01-02T04:44:08.434Z,3.25
2017-01-02T04:44:34.536Z,3.25
2017-01-02T04:45:00.616Z,3.29
2017-01-02T04:45:26.709Z,3.19
2017-01-02T04:45:52.805Z,3.34
2017-01-02T04:46:18.902Z,3.32
2017-01-02T04:46:45.002Z,3.25
2017-01-02T04:47:11.087Z,3.31
2017-01-02T04:47:37.194Z,3.23
2017-01-02T04:48:03.295Z,3.31
2017-01-02T04:48:29.381Z,3.36
2017-01-02T04:48:55.475Z,3.31
2017-01-02T04:49:21.574Z,3.36
2017-01-02T04:49:47.666Z,3.36
2017-01-02T04:50:13.756Z,3.44
2017-01-02T04:50:39.862Z,3.45
2017-01-02T04:51:05.945Z,3.47
2017-01-02T04:51:32.049Z,3.37
2017-01-02T04:51:58.135Z,3.42
2017-01-02T04:52:24.227Z,3.36
2017-01-02T04:52:50.328Z,3.42
2017-01-02T04:53:16.417Z,3.37
2017-01-02T04:53:42.509Z,3.42
2017-01-02T04:54:08.606Z,3.37
2017-01-02T04:54:34.695Z,3.37
2017-01-02T04:55:00.788Z,3.41
2017-01-02T04:55:26.893Z,3.4
2017-01-02T04:55:52.982Z,3.36
2017-01-02T04:56:19.068Z,3.28
2017-01-02T04:56:45.172Z,3.31
2017-01-02T04:57:11.267Z,3.26
2017-01-02T04:57:37.350Z,3.28
2017-01-02T04:58:03.449Z,3.21
2017-01-02T04:58:29.552Z,3.21
2017-01-02T04:58:55.632Z,3.22
2017-01-02T04:59:21.732Z,3.26
2017-01-02T04:59:47.834Z,3.26
2017-01-02T05:00:13.921Z,3.28
2017-01-02T05:00:40.016Z,3.23
2017-01-02T05:01:06.118Z,3.22
2017-01-02T05:01:32.207Z,3.18
2017-01-02T05:01:58.288Z,3.19
2017-01-02T05:02:24.392Z,3.19
2017-01-02T05:02:50.489Z,3.16
2017-01-02T05:03:16.589Z,3.18
2017-01-02T05:03:42.678Z,3.13
2017-01-02T05:04:08.771Z,3.13
2017-01-02T05:04:34.873Z,3.21
2017-01-02T05:05:00.959Z,3.19
2017-01-02T05:05:27.048Z,3.18
2017-01-02T05:05:53.149Z,3.08
2017-01-02T05:06:19.244Z,3.13
2017-01-02T05:06:45.330Z,3.18
2017-01-02T05:07:11.436Z,3.14
2017-01-02T05:07:37.536Z,3.01
2017-01-02T05:08:03.630Z,3.1
2017-01-02T05:08:29.725Z,3.04
2017-01-02T05:08:55.810Z,3.08
2017-01-02T05:09:21.913Z,3.13
2017-01-02T05:09:48.006Z,3.14
2017-01-02T05:10:14.091Z,3.11
2017-01-02T05:10:40.196Z,3.11
2017-01-02T05:11:06.285Z,3.04
2017-01-02T05:11:32.376Z,3.16
2017-01-02T05:11:58.477Z,3
2017-01-02T05:12:24.581Z,3.07
2017-01-02T05:12:50.663Z,3.07
2017-01-02T05:13:16.754Z,3.04
2017-01-02T05:13:42.849Z,3
2017-01-02T05:14:08.946Z,3
2017-01-02T05:14:35.044Z,3.08
2017-01-02T05:15:01.132Z,2.83
2017-01-02T05:15:27.231Z,2.89
2017-01-02T05:15:53.339Z,2.95
2017-01-02T05:16:19.422Z,2.93
2017-01-02T05:16:45.517Z,2.98
2017-01-02T05:17:11.615Z,3.03
2017-01-02T05:17:37.702Z,3.1
2017-01-02T05:18:03.793Z,3.08
2017-01-02T05:18:29.896Z,3.05
2017-01-02T05:18:55.989Z,3.01
2017-01-02T05:19:22.072Z,3.08
2017-01-02T05:19:48.179Z,3.14
2017-01-02T05:20:14.267Z,3.14
2017-01-02T05:20:40.355Z,3.08
2017-01-02T05:21:06.456Z,3.16
2017-01-02T05:21:32.556Z,3.16
2017-01-02T05:21:58.642Z,3.14
2017-01-02T05:22:24.738Z,3.18
2017-01-02T05:22:50.839Z,3.18
2017-01-02T05:23:16.921Z,3.14
2017-01-02T05:23:43.021Z,3.21
2017-01-02T05:24:09.126Z,3.22
2017-01-02T05:24:35.211Z,3.22
2017-01-02T05:25:01.310Z,3.16
2017-01-02T05:25:27.402Z,3.13
2017-01-02T05:25:53.498Z,3.11
2017-01-02T05:26:19.599Z,3.19
2017-01-02T05:26:45.684Z,3.21
2017-01-02T05:27:11.778Z,3.21
2017-01-02T05:27:37.875Z,3.18
2017-01-02T05:28:03.966Z,3.18
2017-01-02T05:28:30.061Z,3.19
2017-01-02T05:28:56.168Z,3.22
2017-01-02T05:29:22.253Z,3.22
2017-01-02T05:29:48.337Z,3.23
2017-01-02T05:30:14.442Z,3.19
2017-01-02T05:30:40.544Z,3.16
2017-01-02T05:31:06.642Z,3.21
2017-01-02T05:31:32.724Z,3.23
2017-01-02T05:31:58.817Z,3.18
2017-01-02T05:32:24.922Z,3.26
2017-01-02T05:32:51.014Z,3.25
2017-01-02T05:33:17.099Z,3.32
2017-01-02T05:33:43.203Z,3.29
2017-01-02T05:34:09.290Z,3.29
2017-01-02T05:34:35.377Z,3.26
2017-01-02T05:35:01.483Z,3.29
2017-01-02T05:35:27.589Z,3.19
2017-01-02T05:35:53.680Z,3.25
2017-01-02T05:36:19.769Z,3.25
2017-01-02T05:36:45.859Z,3.31
2017-01-02T05:37:11.971Z,3.22
2017-01-02T05:37:38.066Z,3.31
2017-01-02T05:38:04.143Z,3.26
2017-01-02T05:38:30.247Z,3.19
2017-01-02T05:38:56.341Z,3.26
2017-01-02T05:39:22.428Z,3.32
2017-01-02T05:39:48.529Z,3.32
2017-01-02T05:40:14.632Z,3.32
2017-01-02T05:40:40.714Z,3.19
2017-01-02T05:41:06.810Z,3.26
2017-01-02T05:41:32.903Z,3.28
2017-01-02T05:41:59.006Z,3.23
2017-01-02T05:42:25.106Z,3.22
2017-01-02T05:42:51.193Z,3.22
2017-01-02T05:43:17.290Z,3.19
2017-01-02T05:43:43.387Z,3.19
2017-01-02T05:44:09.475Z,3.21
2017-01-02T05:44:35.571Z,3.19
2017-01-02T05:45:01.673Z,3.1
2017-01-02T05:45:27.765Z,3.11
2017-01-02T05:45:53.864Z,3.23
2017-01-02T05:46:19.971Z,3.19
2017-01-02T05:46:46.063Z,3.22
2017-01-02T05:47:12.170Z,3.28
2017-01-02T05:47:38.249Z,3.21
2017-01-02T05:48:04.346Z,3.19